Asturias Airport


Codes: LEAS/OVD
Name: Asturias Airport
City: Ranon
Country: Spain
Elevation: 416 ft.
Website:
Wikipedia:

Photos at Asturias Airport


   Photos courtesy of SpottingLog. You can add your own sightings and photos by signing up for a free trial today.



CS-TRO, 25-Jun-2018
© Samuel Pérez

2-DEER, 25-Jun-2018
© Samuel Pérez

F-WWOW, 25-Jun-2018
© Samuel Pérez

EC-LVV, 25-Jun-2018
© Samuel Pérez


Weather at Asturias Airport


Time (UTC)DescriptionTempratureWindCloud coverageVisibilityPressureHumidity
13-Jun-2024 03:00Scattered Clouds12°C4 mph, S30%10000m1021hPa89%
13-Jun-2024 06:00Broken Clouds12°C4 mph, S63%10000m1019hPa81%
13-Jun-2024 09:00Overcast Clouds18°C2 mph, NW100%10000m1017hPa55%
13-Jun-2024 12:00Overcast Clouds16°C7 mph, NW100%10000m1017hPa68%
13-Jun-2024 15:00Light Rain14°C0 mph, NW100%10000m1017hPa81%
13-Jun-2024 18:00Light Rain13°C4 mph, S100%10000m1016hPa92%
13-Jun-2024 21:00Light Rain14°C4 mph, S100%10000m1016hPa91%
14-Jun-2024 00:00Overcast Clouds15°C2 mph, W100%10000m1015hPa87%
14-Jun-2024 03:00Overcast Clouds15°C2 mph, SW100%10000m1014hPa87%
14-Jun-2024 06:00Light Rain15°C4 mph, NW100%10000m1014hPa92%
14-Jun-2024 09:00Light Rain15°C7 mph, NW100%6503m1014hPa96%
14-Jun-2024 12:00Light Rain15°C7 mph, NW100%10000m1014hPa95%
14-Jun-2024 15:00Light Rain17°C13 mph, NW100%10000m1013hPa74%
14-Jun-2024 18:00Overcast Clouds15°C16 mph, NW100%10000m1014hPa73%
14-Jun-2024 21:00Scattered Clouds14°C11 mph, W34%10000m1016hPa78%
15-Jun-2024 00:00Few Clouds10°C7 mph, SW19%9071m1016hPa92%
15-Jun-2024 03:00Scattered Clouds9°C4 mph, SW31%10000m1016hPa92%
15-Jun-2024 06:00Scattered Clouds10°C4 mph, SW35%10000m1016hPa84%
15-Jun-2024 09:00Clear Sky17°C9 mph, NW1%10000m1016hPa49%
15-Jun-2024 12:00Few Clouds19°C13 mph, NW12%10000m1016hPa51%
15-Jun-2024 15:00Clear Sky17°C11 mph, NW8%10000m1017hPa62%
15-Jun-2024 18:00Few Clouds16°C7 mph, NW20%10000m1017hPa66%
15-Jun-2024 21:00Overcast Clouds12°C4 mph, W85%10000m1018hPa89%
16-Jun-2024 00:00Overcast Clouds11°C4 mph, S93%10000m1016hPa94%
16-Jun-2024 03:00Overcast Clouds12°C4 mph, S100%10000m1015hPa84%
16-Jun-2024 06:00Overcast Clouds14°C2 mph, S99%10000m1015hPa72%
16-Jun-2024 09:00Overcast Clouds20°C2 mph, SE100%10000m1014hPa53%
16-Jun-2024 12:00Overcast Clouds21°C7 mph, N100%10000m1013hPa54%
16-Jun-2024 15:00Overcast Clouds21°C7 mph, N90%10000m1013hPa55%
16-Jun-2024 18:00Broken Clouds19°C7 mph, NE56%10000m1013hPa71%
16-Jun-2024 21:00Few Clouds14°C4 mph, SE20%10000m1014hPa93%
17-Jun-2024 00:00Scattered Clouds14°C4 mph, S46%10000m1014hPa92%
17-Jun-2024 03:00Broken Clouds13°C4 mph, S73%10000m1013hPa94%
17-Jun-2024 06:00Overcast Clouds14°C4 mph, S87%10000m1012hPa86%
17-Jun-2024 09:00Overcast Clouds21°C4 mph, E92%10000m1011hPa58%
17-Jun-2024 12:00Overcast Clouds22°C9 mph, NE95%10000m1010hPa54%
17-Jun-2024 15:00Light Rain19°C4 mph, E100%10000m1010hPa77%
17-Jun-2024 18:00Overcast Clouds19°C2 mph, N100%10000m1011hPa73%
17-Jun-2024 21:00Overcast Clouds16°C2 mph, SE100%10000m1012hPa91%
18-Jun-2024 00:00Overcast Clouds15°C2 mph, SE100%10000m1011hPa97%